sensor_id;sensor_type;location;lat;lon;timestamp;pressure;altitude;pressure_sealevel;temperature;humidity
68141;BME280;54941;52.220;104.306;2023-10-09T00:00:43;96989.22;;;4.91;91.26
68141;BME280;54941;52.220;104.306;2023-10-09T00:03:10;96991.72;;;4.80;92.80
68141;BME280;54941;52.220;104.306;2023-10-09T00:05:36;96997.09;;;4.91;92.20
68141;BME280;54941;52.220;104.306;2023-10-09T00:08:03;96994.50;;;4.95;91.84
68141;BME280;54941;52.220;104.306;2023-10-09T00:10:29;96987.53;;;4.97;91.69
68141;BME280;54941;52.220;104.306;2023-10-09T00:12:57;96992.13;;;5.20;91.98
68141;BME280;54941;52.220;104.306;2023-10-09T00:15:23;96991.44;;;5.39;91.21
68141;BME280;54941;52.220;104.306;2023-10-09T00:17:49;96990.75;;;5.62;90.21
68141;BME280;54941;52.220;104.306;2023-10-09T00:20:16;96991.78;;;5.80;89.00
68141;BME280;54941;52.220;104.306;2023-10-09T00:22:42;96995.13;;;5.67;89.06
68141;BME280;54941;52.220;104.306;2023-10-09T00:25:08;96999.38;;;5.47;90.02
68141;BME280;54941;52.220;104.306;2023-10-09T00:27:35;96999.38;;;5.48;90.23
68141;BME280;54941;52.220;104.306;2023-10-09T00:30:03;96994.06;;;5.44;90.24
68141;BME280;54941;52.220;104.306;2023-10-09T00:32:31;96995.13;;;5.66;89.93
68141;BME280;54941;52.220;104.306;2023-10-09T00:34:57;96994.41;;;5.85;89.03
68141;BME280;54941;52.220;104.306;2023-10-09T00:37:24;96992.78;;;5.98;88.09
68141;BME280;54941;52.220;104.306;2023-10-09T00:39:50;96986.72;;;6.11;87.73
68141;BME280;54941;52.220;104.306;2023-10-09T00:42:16;96984.97;;;6.10;87.52
68141;BME280;54941;52.220;104.306;2023-10-09T00:44:42;96985.84;;;6.07;87.65
68141;BME280;54941;52.220;104.306;2023-10-09T00:47:12;96987.44;;;5.89;88.36
68141;BME280;54941;52.220;104.306;2023-10-09T00:49:39;96984.09;;;6.08;87.55
68141;BME280;54941;52.220;104.306;2023-10-09T00:52:05;96978.94;;;6.25;86.90
68141;BME280;54941;52.220;104.306;2023-10-09T00:54:31;96978.09;;;6.32;86.36
68141;BME280;54941;52.220;104.306;2023-10-09T00:56:58;96980.66;;;6.23;86.82
68141;BME280;54941;52.220;104.306;2023-10-09T00:59:25;96978.84;;;6.03;87.88
68141;BME280;54941;52.220;104.306;2023-10-09T01:01:52;96990.34;;;6.31;87.50
68141;BME280;54941;52.220;104.306;2023-10-09T01:04:20;96987.91;;;6.79;85.12
68141;BME280;54941;52.220;104.306;2023-10-09T01:06:46;96994.97;;;7.01;84.05
68141;BME280;54941;52.220;104.306;2023-10-09T01:09:16;96980.16;;;7.56;82.04
68141;BME280;54941;52.220;104.306;2023-10-09T01:11:42;96992.41;;;7.85;80.30
68141;BME280;54941;52.220;104.306;2023-10-09T01:14:09;96992.31;;;8.40;78.43
68141;BME280;54941;52.220;104.306;2023-10-09T01:16:35;96988.53;;;9.02;76.35
68141;BME280;54941;52.220;104.306;2023-10-09T01:19:01;96993.19;;;8.33;77.44
68141;BME280;54941;52.220;104.306;2023-10-09T01:21:29;96995.84;;;8.27;77.95
68141;BME280;54941;52.220;104.306;2023-10-09T01:23:57;96987.84;;;8.63;77.10
68141;BME280;54941;52.220;104.306;2023-10-09T01:26:23;96981.53;;;8.99;76.06
68141;BME280;54941;52.220;104.306;2023-10-09T01:28:50;96977.59;;;9.63;73.07
68141;BME280;54941;52.220;104.306;2023-10-09T01:31:16;96979.50;;;9.43;73.06
68141;BME280;54941;52.220;104.306;2023-10-09T01:33:42;96987.59;;;9.15;74.18
68141;BME280;54941;52.220;104.306;2023-10-09T01:36:09;96985.63;;;9.45;74.13
68141;BME280;54941;52.220;104.306;2023-10-09T01:38:35;96985.56;;;9.55;73.41
68141;BME280;54941;52.220;104.306;2023-10-09T01:41:03;96986.09;;;9.92;72.18
68141;BME280;54941;52.220;104.306;2023-10-09T01:43:29;96979.59;;;10.30;71.18
68141;BME280;54941;52.220;104.306;2023-10-09T01:45:55;96979.94;;;10.78;68.88
68141;BME280;54941;52.220;104.306;2023-10-09T01:48:21;96996.66;;;10.80;69.12
68141;BME280;54941;52.220;104.306;2023-10-09T01:50:48;96986.06;;;10.81;69.63
68141;BME280;54941;52.220;104.306;2023-10-09T01:53:14;96988.31;;;11.69;66.41
68141;BME280;54941;52.220;104.306;2023-10-09T01:55:40;96992.78;;;12.21;64.73
68141;BME280;54941;52.220;104.306;2023-10-09T01:58:08;96988.38;;;13.08;61.31
68141;BME280;54941;52.220;104.306;2023-10-09T02:00:34;96979.31;;;13.95;58.28
68141;BME280;54941;52.220;104.306;2023-10-09T02:03:01;96974.00;;;13.95;57.99
68141;BME280;54941;52.220;104.306;2023-10-09T02:05:27;96984.72;;;13.54;58.58
68141;BME280;54941;52.220;104.306;2023-10-09T02:07:53;96970.88;;;14.12;57.75
68141;BME280;54941;52.220;104.306;2023-10-09T02:10:20;96964.47;;;15.15;53.82
68141;BME280;54941;52.220;104.306;2023-10-09T02:12:48;96966.03;;;16.33;50.85
68141;BME280;54941;52.220;104.306;2023-10-09T02:15:16;96967.28;;;17.21;47.97
68141;BME280;54941;52.220;104.306;2023-10-09T02:17:42;96963.72;;;17.44;47.39
68141;BME280;54941;52.220;104.306;2023-10-09T02:20:09;96965.13;;;17.07;47.63
68141;BME280;54941;52.220;104.306;2023-10-09T02:22:36;96969.41;;;15.57;52.54
68141;BME280;54941;52.220;104.306;2023-10-09T02:25:02;96958.47;;;16.46;50.22
68141;BME280;54941;52.220;104.306;2023-10-09T02:27:30;96961.56;;;15.81;51.00
68141;BME280;54941;52.220;104.306;2023-10-09T02:29:56;96967.59;;;16.88;49.33
68141;BME280;54941;52.220;104.306;2023-10-09T02:32:24;96973.00;;;16.87;48.96
68141;BME280;54941;52.220;104.306;2023-10-09T02:34:50;96965.25;;;16.29;50.79
68141;BME280;54941;52.220;104.306;2023-10-09T02:37:16;96976.03;;;15.14;54.02
68141;BME280;54941;52.220;104.306;2023-10-09T02:39:42;96960.78;;;17.05;48.36
68141;BME280;54941;52.220;104.306;2023-10-09T02:42:09;96968.38;;;15.63;50.98
68141;BME280;54941;52.220;104.306;2023-10-09T02:44:35;96978.09;;;14.41;55.61
68141;BME280;54941;52.220;104.306;2023-10-09T02:47:04;96979.69;;;14.81;54.04
68141;BME280;54941;52.220;104.306;2023-10-09T02:49:32;96979.69;;;14.81;54.41
68141;BME280;54941;52.220;104.306;2023-10-09T02:51:58;96982.16;;;14.56;55.05
68141;BME280;54941;52.220;104.306;2023-10-09T02:54:24;96975.38;;;15.08;53.26
68141;BME280;54941;52.220;104.306;2023-10-09T02:56:52;96976.75;;;14.90;54.01
68141;BME280;54941;52.220;104.306;2023-10-09T02:59:19;96974.72;;;15.29;52.97
68141;BME280;54941;52.220;104.306;2023-10-09T03:01:45;96967.56;;;15.59;52.79
68141;BME280;54941;52.220;104.306;2023-10-09T03:04:11;96970.34;;;14.66;54.74
68141;BME280;54941;52.220;104.306;2023-10-09T03:06:39;96974.59;;;14.07;55.75
68141;BME280;54941;52.220;104.306;2023-10-09T03:09:06;96967.91;;;14.26;56.23
68141;BME280;54941;52.220;104.306;2023-10-09T03:11:32;96966.69;;;14.38;55.76
68141;BME280;54941;52.220;104.306;2023-10-09T03:13:58;96962.22;;;15.59;52.29
68141;BME280;54941;52.220;104.306;2023-10-09T03:16:24;96963.13;;;16.39;49.92
68141;BME280;54941;52.220;104.306;2023-10-09T03:18:53;96972.41;;;14.56;54.87
68141;BME280;54941;52.220;104.306;2023-10-09T03:21:19;96971.53;;;13.51;58.33
68141;BME280;54941;52.220;104.306;2023-10-09T03:23:48;96972.41;;;14.56;55.94
68141;BME280;54941;52.220;104.306;2023-10-09T03:26:15;96969.06;;;15.10;53.31
68141;BME280;54941;52.220;104.306;2023-10-09T03:28:41;96969.34;;;15.88;51.93
68141;BME280;54941;52.220;104.306;2023-10-09T03:31:07;96972.75;;;15.06;53.32
68141;BME280;54941;52.220;104.306;2023-10-09T03:33:33;96972.50;;;15.43;52.80
68141;BME280;54941;52.220;104.306;2023-10-09T03:36:00;96971.00;;;15.35;52.22
68141;BME280;54941;52.220;104.306;2023-10-09T03:38:26;96963.31;;;16.08;50.90
68141;BME280;54941;52.220;104.306;2023-10-09T03:40:54;96969.41;;;15.57;51.59
68141;BME280;54941;52.220;104.306;2023-10-09T03:43:20;96968.75;;;15.49;52.24
68141;BME280;54941;52.220;104.306;2023-10-09T03:45:47;96968.59;;;15.26;53.62
68141;BME280;54941;52.220;104.306;2023-10-09T03:48:13;96974.13;;;14.25;56.40
68141;BME280;54941;52.220;104.306;2023-10-09T03:50:40;96963.06;;;15.04;53.93
68141;BME280;54941;52.220;104.306;2023-10-09T03:53:06;96964.25;;;15.53;52.88
68141;BME280;54941;52.220;104.306;2023-10-09T03:55:33;96961.28;;;15.62;52.73
68141;BME280;54941;52.220;104.306;2023-10-09T03:58:01;96962.50;;;16.32;51.95
68141;BME280;54941;52.220;104.306;2023-10-09T04:00:28;96961.06;;;16.97;49.72
68141;BME280;54941;52.220;104.306;2023-10-09T04:02:55;96958.91;;;17.30;48.92
68141;BME280;54941;52.220;104.306;2023-10-09T04:05:22;96951.03;;;17.04;48.71
68141;BME280;54941;52.220;104.306;2023-10-09T04:07:48;96955.09;;;16.41;50.30
68141;BME280;54941;52.220;104.306;2023-10-09T04:10:14;96963.25;;;16.61;49.64
68141;BME280;54941;52.220;104.306;2023-10-09T04:12:40;96958.25;;;16.27;49.82
68141;BME280;54941;52.220;104.306;2023-10-09T04:15:09;96953.91;;;15.98;50.76
68141;BME280;54941;52.220;104.306;2023-10-09T04:17:35;96953.25;;;17.16;48.32
68141;BME280;54941;52.220;104.306;2023-10-09T04:20:02;96952.78;;;16.30;50.82
68141;BME280;54941;52.220;104.306;2023-10-09T04:22:29;96959.03;;;15.78;51.72
68141;BME280;54941;52.220;104.306;2023-10-09T04:24:56;96947.84;;;15.66;51.20
68141;BME280;54941;52.220;104.306;2023-10-09T04:27:22;96946.75;;;16.25;50.92
68141;BME280;54941;52.220;104.306;2023-10-09T04:29:48;96944.59;;;16.36;51.67
68141;BME280;54941;52.220;104.306;2023-10-09T04:32:16;96950.28;;;16.50;51.24
68141;BME280;54941;52.220;104.306;2023-10-09T04:34:42;96948.25;;;16.33;51.71
68141;BME280;54941;52.220;104.306;2023-10-09T04:37:09;96950.03;;;16.58;51.76
68141;BME280;54941;52.220;104.306;2023-10-09T04:39:35;96940.63;;;16.23;52.45
68141;BME280;54941;52.220;104.306;2023-10-09T04:42:01;96949.38;;;15.73;53.38
68141;BME280;54941;52.220;104.306;2023-10-09T04:44:28;96947.41;;;16.31;52.40
68141;BME280;54941;52.220;104.306;2023-10-09T04:46:54;96944.72;;;15.80;53.90
68141;BME280;54941;52.220;104.306;2023-10-09T04:49:22;96943.97;;;15.77;53.45
68141;BME280;54941;52.220;104.306;2023-10-09T04:51:48;96944.44;;;15.89;53.85
68141;BME280;54941;52.220;104.306;2023-10-09T04:54:14;96943.75;;;15.83;53.77
68141;BME280;54941;52.220;104.306;2023-10-09T04:56:41;96937.69;;;16.04;53.37
68141;BME280;54941;52.220;104.306;2023-10-09T04:59:07;96943.00;;;16.30;51.16
68141;BME280;54941;52.220;104.306;2023-10-09T05:01:33;96941.22;;;16.04;52.56
68141;BME280;54941;52.220;104.306;2023-10-09T05:03:59;96948.66;;;15.40;54.40
68141;BME280;54941;52.220;104.306;2023-10-09T05:06:27;96949.84;;;15.58;52.98
68141;BME280;54941;52.220;104.306;2023-10-09T05:08:53;96943.75;;;15.55;53.59
68141;BME280;54941;52.220;104.306;2023-10-09T05:11:22;96951.78;;;15.53;53.50
68141;BME280;54941;52.220;104.306;2023-10-09T05:13:48;96942.13;;;15.21;53.98
68141;BME280;54941;52.220;104.306;2023-10-09T05:16:16;96951.50;;;15.34;54.00
68141;BME280;54941;52.220;104.306;2023-10-09T05:18:42;96947.13;;;15.32;53.96
68141;BME280;54941;52.220;104.306;2023-10-09T05:21:09;96956.78;;;15.06;54.38
68141;BME280;54941;52.220;104.306;2023-10-09T05:23:36;96945.06;;;15.12;54.39
68141;BME280;54941;52.220;104.306;2023-10-09T05:26:03;96949.69;;;15.35;53.75
68141;BME280;54941;52.220;104.306;2023-10-09T05:28:29;96943.16;;;15.45;53.97
68141;BME280;54941;52.220;104.306;2023-10-09T05:30:55;96946.84;;;15.41;53.35
68141;BME280;54941;52.220;104.306;2023-10-09T05:33:21;96939.25;;;15.29;54.02
68141;BME280;54941;52.220;104.306;2023-10-09T05:35:48;96941.94;;;15.27;53.82
68141;BME280;54941;52.220;104.306;2023-10-09T05:38:14;96944.03;;;15.17;53.68
68141;BME280;54941;52.220;104.306;2023-10-09T05:40:42;96947.63;;;15.15;54.01
68141;BME280;54941;52.220;104.306;2023-10-09T05:43:09;96940.34;;;15.22;53.42
68141;BME280;54941;52.220;104.306;2023-10-09T05:45:35;96943.09;;;14.89;54.44
68141;BME280;54941;52.220;104.306;2023-10-09T05:48:01;96936.13;;;15.14;53.85
68141;BME280;54941;52.220;104.306;2023-10-09T05:50:28;96944.66;;;15.26;53.25
68141;BME280;54941;52.220;104.306;2023-10-09T05:52:56;96939.84;;;15.09;53.95
68141;BME280;54941;52.220;104.306;2023-10-09T05:55:24;96934.22;;;15.20;53.95
68141;BME280;54941;52.220;104.306;2023-10-09T05:57:53;96930.81;;;15.42;53.08
68141;BME280;54941;52.220;104.306;2023-10-09T06:00:19;96934.53;;;15.37;53.01
68141;BME280;54941;52.220;104.306;2023-10-09T06:02:45;96926.13;;;15.23;53.26
68141;BME280;54941;52.220;104.306;2023-10-09T06:05:12;96917.59;;;15.39;52.75
68141;BME280;54941;52.220;104.306;2023-10-09T06:07:38;96922.03;;;15.39;52.78
68141;BME280;54941;52.220;104.306;2023-10-09T06:10:05;96928.44;;;15.33;52.71
68141;BME280;54941;52.220;104.306;2023-10-09T06:12:31;96918.78;;;15.31;52.13
68141;BME280;54941;52.220;104.306;2023-10-09T06:14:59;96916.66;;;15.42;51.70
68141;BME280;54941;52.220;104.306;2023-10-09T06:17:26;96916.13;;;15.31;51.77
68141;BME280;54941;52.220;104.306;2023-10-09T06:19:52;96911.13;;;15.20;51.79
68141;BME280;54941;52.220;104.306;2023-10-09T06:22:18;96917.63;;;15.10;51.82
68141;BME280;54941;52.220;104.306;2023-10-09T06:24:44;96913.97;;;15.42;51.39
68141;BME280;54941;52.220;104.306;2023-10-09T06:27:11;96909.66;;;15.38;51.41
68141;BME280;54941;52.220;104.306;2023-10-09T06:29:41;96911.47;;;15.65;50.73
68141;BME280;54941;52.220;104.306;2023-10-09T06:32:10;96906.28;;;15.33;51.19
68141;BME280;54941;52.220;104.306;2023-10-09T06:34:36;96909.19;;;15.53;50.18
68141;BME280;54941;52.220;104.306;2023-10-09T06:37:03;96907.22;;;15.58;50.36
68141;BME280;54941;52.220;104.306;2023-10-09T06:39:29;96899.47;;;15.52;49.94
68141;BME280;54941;52.220;104.306;2023-10-09T06:41:55;96900.34;;;15.51;49.61
68141;BME280;54941;52.220;104.306;2023-10-09T06:44:21;96902.41;;;15.43;49.80
68141;BME280;54941;52.220;104.306;2023-10-09T06:46:49;96900.25;;;15.26;50.27
68141;BME280;54941;52.220;104.306;2023-10-09T06:49:16;96894.75;;;15.60;49.25
68141;BME280;54941;52.220;104.306;2023-10-09T06:51:42;96892.09;;;15.60;49.33
68141;BME280;54941;52.220;104.306;2023-10-09T06:54:09;96888.81;;;15.52;49.70
68141;BME280;54941;52.220;104.306;2023-10-09T06:56:35;96892.78;;;15.67;49.40
68141;BME280;54941;52.220;104.306;2023-10-09T06:59:03;96884.78;;;15.67;48.79
68141;BME280;54941;52.220;104.306;2023-10-09T07:01:30;96881.69;;;15.51;49.19
68141;BME280;54941;52.220;104.306;2023-10-09T07:03:57;96888.25;;;15.69;49.00
68141;BME280;54941;52.220;104.306;2023-10-09T07:06:25;96881.19;;;15.68;49.52
68141;BME280;54941;52.220;104.306;2023-10-09T07:08:52;96885.91;;;15.58;49.72
68141;BME280;54941;52.220;104.306;2023-10-09T07:11:18;96886.22;;;15.49;48.67
68141;BME280;54941;52.220;104.306;2023-10-09T07:13:44;96891.66;;;15.46;49.03
68141;BME280;54941;52.220;104.306;2023-10-09T07:16:11;96887.34;;;15.42;48.44
68141;BME280;54941;52.220;104.306;2023-10-09T07:18:37;96883.94;;;15.37;47.64
68141;BME280;54941;52.220;104.306;2023-10-09T07:21:03;96893.69;;;15.38;47.47
68141;BME280;54941;52.220;104.306;2023-10-09T07:23:31;96886.81;;;15.31;47.93
68141;BME280;54941;52.220;104.306;2023-10-09T07:26:04;96892.22;;;15.28;47.63
68141;BME280;54941;52.220;104.306;2023-10-09T07:28:34;96889.38;;;15.34;47.38
68141;BME280;54941;52.220;104.306;2023-10-09T07:31:00;96890.94;;;15.41;47.40
68141;BME280;54941;52.220;104.306;2023-10-09T07:33:26;96888.69;;;15.55;46.34
68141;BME280;54941;52.220;104.306;2023-10-09T07:35:52;96889.06;;;15.71;45.55
68141;BME280;54941;52.220;104.306;2023-10-09T07:38:20;96890.38;;;15.58;44.46
68141;BME280;54941;52.220;104.306;2023-10-09T07:40:51;96892.00;;;15.63;43.06
68141;BME280;54941;52.220;104.306;2023-10-09T07:43:17;96889.69;;;15.51;42.86
68141;BME280;54941;52.220;104.306;2023-10-09T07:45:43;96896.75;;;15.54;42.56
68141;BME280;54941;52.220;104.306;2023-10-09T07:48:10;96899.91;;;15.66;41.92
68141;BME280;54941;52.220;104.306;2023-10-09T07:50:37;96891.78;;;15.69;42.18
68141;BME280;54941;52.220;104.306;2023-10-09T07:53:05;96897.75;;;15.78;42.05
68141;BME280;54941;52.220;104.306;2023-10-09T07:55:31;96906.75;;;15.73;42.17
68141;BME280;54941;52.220;104.306;2023-10-09T07:57:59;96891.22;;;15.60;42.47
68141;BME280;54941;52.220;104.306;2023-10-09T08:00:25;96898.59;;;15.50;43.13
68141;BME280;54941;52.220;104.306;2023-10-09T08:02:51;96891.09;;;15.64;42.13
68141;BME280;54941;52.220;104.306;2023-10-09T08:05:17;96893.91;;;15.58;42.71
68141;BME280;54941;52.220;104.306;2023-10-09T08:07:44;96892.88;;;15.36;43.80
68141;BME280;54941;52.220;104.306;2023-10-09T08:10:10;96891.75;;;15.43;43.70
68141;BME280;54941;52.220;104.306;2023-10-09T08:12:37;96886.44;;;15.43;43.35
68141;BME280;54941;52.220;104.306;2023-10-09T08:15:07;96891.53;;;15.49;42.67
68141;BME280;54941;52.220;104.306;2023-10-09T08:17:33;96884.63;;;15.71;42.33
68141;BME280;54941;52.220;104.306;2023-10-09T08:19:59;96888.97;;;15.74;42.06
68141;BME280;54941;52.220;104.306;2023-10-09T08:22:26;96881.31;;;15.65;42.90
68141;BME280;54941;52.220;104.306;2023-10-09T08:24:54;96877.50;;;15.72;42.83
68141;BME280;54941;52.220;104.306;2023-10-09T08:27:20;96875.66;;;15.74;43.05
68141;BME280;54941;52.220;104.306;2023-10-09T08:29:46;96870.13;;;15.80;42.51
68141;BME280;54941;52.220;104.306;2023-10-09T08:32:14;96867.81;;;15.69;43.28
68141;BME280;54941;52.220;104.306;2023-10-09T08:34:41;96873.63;;;15.54;43.70
68141;BME280;54941;52.220;104.306;2023-10-09T08:37:07;96872.84;;;15.51;43.81
68141;BME280;54941;52.220;104.306;2023-10-09T08:39:33;96876.84;;;15.65;42.66
68141;BME280;54941;52.220;104.306;2023-10-09T08:41:59;96874.81;;;15.45;43.49
68141;BME280;54941;52.220;104.306;2023-10-09T08:44:26;96872.66;;;15.57;42.99
68141;BME280;54941;52.220;104.306;2023-10-09T08:46:54;96874.88;;;15.70;42.75
68141;BME280;54941;52.220;104.306;2023-10-09T08:49:22;96873.25;;;15.66;42.72
68141;BME280;54941;52.220;104.306;2023-10-09T08:51:48;96877.16;;;15.55;43.18
68141;BME280;54941;52.220;104.306;2023-10-09T08:54:14;96872.53;;;15.33;43.88
68141;BME280;54941;52.220;104.306;2023-10-09T08:56:41;96870.81;;;15.32;43.95
68141;BME280;54941;52.220;104.306;2023-10-09T08:59:08;96878.91;;;15.29;43.50
68141;BME280;54941;52.220;104.306;2023-10-09T09:01:34;96877.50;;;15.17;43.44
68141;BME280;54941;52.220;104.306;2023-10-09T09:04:00;96874.34;;;15.33;43.18
68141;BME280;54941;52.220;104.306;2023-10-09T09:06:36;96880.75;;;15.54;43.13
68141;BME280;54941;52.220;104.306;2023-10-09T09:09:10;96873.94;;;15.45;42.74
68141;BME280;54941;52.220;104.306;2023-10-09T09:11:41;96882.44;;;15.30;43.49
68141;BME280;54941;52.220;104.306;2023-10-09T09:14:07;96881.16;;;15.13;43.24
68141;BME280;54941;52.220;104.306;2023-10-09T09:16:35;96887.78;;;15.00;43.94
68141;BME280;54941;52.220;104.306;2023-10-09T09:19:02;96888.53;;;15.04;44.31
68141;BME280;54941;52.220;104.306;2023-10-09T09:21:31;96891.25;;;15.02;44.28
68141;BME280;54941;52.220;104.306;2023-10-09T09:23:59;96888.69;;;14.99;44.24
68141;BME280;54941;52.220;104.306;2023-10-09T09:26:36;96884.66;;;14.86;45.03
68141;BME280;54941;52.220;104.306;2023-10-09T09:29:05;96880.13;;;14.89;44.61
68141;BME280;54941;52.220;104.306;2023-10-09T09:31:31;96880.16;;;14.88;44.62
68141;BME280;54941;52.220;104.306;2023-10-09T09:33:57;96888.66;;;15.01;44.40
68141;BME280;54941;52.220;104.306;2023-10-09T09:36:24;96888.63;;;14.73;45.52
68141;BME280;54941;52.220;104.306;2023-10-09T09:38:52;96892.72;;;14.53;46.21
68141;BME280;54941;52.220;104.306;2023-10-09T09:41:19;96893.44;;;14.27;48.97
68141;BME280;54941;52.220;104.306;2023-10-09T09:43:45;96898.78;;;13.93;51.92
68141;BME280;54941;52.220;104.306;2023-10-09T09:46:12;96898.81;;;13.58;53.79
68141;BME280;54941;52.220;104.306;2023-10-09T09:48:39;96895.94;;;13.31;53.41
68141;BME280;54941;52.220;104.306;2023-10-09T09:51:05;96901.16;;;13.34;52.20
68141;BME280;54941;52.220;104.306;2023-10-09T09:53:32;96892.41;;;13.29;55.07
68141;BME280;54941;52.220;104.306;2023-10-09T09:56:02;96895.69;;;13.02;56.83
68141;BME280;54941;52.220;104.306;2023-10-09T09:58:29;96909.66;;;12.70;57.09
68141;BME280;54941;52.220;104.306;2023-10-09T10:01:01;96903.91;;;12.48;56.83
68141;BME280;54941;52.220;104.306;2023-10-09T10:03:31;96916.47;;;12.40;56.50
68141;BME280;54941;52.220;104.306;2023-10-09T10:06:01;96904.34;;;12.26;56.26
68141;BME280;54941;52.220;104.306;2023-10-09T10:08:28;96913.59;;;12.06;57.44
68141;BME280;54941;52.220;104.306;2023-10-09T10:10:54;96915.59;;;11.93;57.84
68141;BME280;54941;52.220;104.306;2023-10-09T10:13:55;96919.69;;;11.60;58.85
68141;BME280;54941;52.220;104.306;2023-10-09T10:16:22;96918.88;;;11.53;59.01
68141;BME280;54941;52.220;104.306;2023-10-09T10:18:55;96917.28;;;11.43;59.11
68141;BME280;54941;52.220;104.306;2023-10-09T10:21:23;96924.47;;;11.36;59.96
68141;BME280;54941;52.220;104.306;2023-10-09T10:23:49;96918.59;;;11.16;60.67
68141;BME280;54941;52.220;104.306;2023-10-09T10:26:20;96928.63;;;10.93;61.52
68141;BME280;54941;52.220;104.306;2023-10-09T10:29:15;96924.41;;;10.81;60.62
68141;BME280;54941;52.220;104.306;2023-10-09T10:31:58;96926.25;;;10.73;61.15
68141;BME280;54941;52.220;104.306;2023-10-09T10:34:25;96936.84;;;10.71;61.46
68141;BME280;54941;52.220;104.306;2023-10-09T10:36:51;96932.59;;;10.60;61.53
68141;BME280;54941;52.220;104.306;2023-10-09T10:39:18;96940.47;;;10.64;62.00
68141;BME280;54941;52.220;104.306;2023-10-09T10:41:53;96943.25;;;10.52;62.61
68141;BME280;54941;52.220;104.306;2023-10-09T10:44:28;96948.66;;;10.44;62.80
68141;BME280;54941;52.220;104.306;2023-10-09T10:46:54;96946.03;;;10.43;62.59
68141;BME280;54941;52.220;104.306;2023-10-09T10:49:21;96947.97;;;10.26;63.52
68141;BME280;54941;52.220;104.306;2023-10-09T10:51:48;96958.59;;;10.16;63.75
68141;BME280;54941;52.220;104.306;2023-10-09T10:54:21;96960.50;;;10.02;64.17
68141;BME280;54941;52.220;104.306;2023-10-09T10:56:48;96960.59;;;9.93;64.24
68141;BME280;54941;52.220;104.306;2023-10-09T10:59:14;96966.78;;;9.90;64.65
68141;BME280;54941;52.220;104.306;2023-10-09T11:01:42;96967.72;;;9.83;64.59
68141;BME280;54941;52.220;104.306;2023-10-09T11:04:11;96973.00;;;9.82;64.17
68141;BME280;54941;52.220;104.306;2023-10-09T11:06:37;96974.00;;;9.70;65.18
68141;BME280;54941;52.220;104.306;2023-10-09T11:09:05;96972.31;;;9.58;65.91
68141;BME280;54941;52.220;104.306;2023-10-09T11:11:32;96982.13;;;9.43;66.35
68141;BME280;54941;52.220;104.306;2023-10-09T11:14:08;96981.44;;;9.13;67.46
68141;BME280;54941;52.220;104.306;2023-10-09T11:16:36;96983.25;;;9.08;66.97
68141;BME280;54941;52.220;104.306;2023-10-09T11:19:04;96984.09;;;9.10;67.27
68141;BME280;54941;52.220;104.306;2023-10-09T11:21:30;96981.50;;;9.01;68.25
68141;BME280;54941;52.220;104.306;2023-10-09T11:23:58;96986.78;;;9.04;67.53
68141;BME280;54941;52.220;104.306;2023-10-09T11:26:26;96985.91;;;9.00;67.55
68141;BME280;54941;52.220;104.306;2023-10-09T11:29:09;96991.28;;;8.84;68.36
68141;BME280;54941;52.220;104.306;2023-10-09T11:31:35;96986.06;;;8.65;69.15
68141;BME280;54941;52.220;104.306;2023-10-09T11:34:01;96994.00;;;8.62;69.14
68141;BME280;54941;52.220;104.306;2023-10-09T11:36:34;96987.00;;;8.58;69.38
68141;BME280;54941;52.220;104.306;2023-10-09T11:39:01;96993.06;;;8.80;68.80
68141;BME280;54941;52.220;104.306;2023-10-09T11:41:28;96993.97;;;8.71;69.07
68141;BME280;54941;52.220;104.306;2023-10-09T11:43:54;96992.25;;;8.61;70.36
68141;BME280;54941;52.220;104.306;2023-10-09T11:46:21;96996.66;;;8.55;70.89
68141;BME280;54941;52.220;104.306;2023-10-09T11:49:02;96994.91;;;8.55;70.90
68141;BME280;54941;52.220;104.306;2023-10-09T11:51:30;96994.91;;;8.57;70.55
68141;BME280;54941;52.220;104.306;2023-10-09T11:53:56;96997.53;;;8.61;70.23
68141;BME280;54941;52.220;104.306;2023-10-09T11:56:23;97001.09;;;8.48;70.47
68141;BME280;54941;52.220;104.306;2023-10-09T11:58:49;96999.34;;;8.30;71.12
68141;BME280;54941;52.220;104.306;2023-10-09T12:01:16;97007.28;;;8.12;71.07
68141;BME280;54941;52.220;104.306;2023-10-09T12:03:42;97005.50;;;8.23;70.70
68141;BME280;54941;52.220;104.306;2023-10-09T12:06:08;97005.53;;;8.15;71.22
68141;BME280;54941;52.220;104.306;2023-10-09T12:08:36;97010.78;;;7.99;72.43
68141;BME280;54941;52.220;104.306;2023-10-09T12:11:03;97015.19;;;7.94;72.05
68141;BME280;54941;52.220;104.306;2023-10-09T12:13:30;97009.03;;;8.11;71.73
68141;BME280;54941;52.220;104.306;2023-10-09T12:15:56;97004.63;;;8.27;71.34
68141;BME280;54941;52.220;104.306;2023-10-09T12:18:22;97008.13;;;8.37;71.48
68141;BME280;54941;52.220;104.306;2023-10-09T12:20:49;97014.25;;;8.33;71.31
68141;BME280;54941;52.220;104.306;2023-10-09T12:23:15;97013.38;;;8.28;71.43
68141;BME280;54941;52.220;104.306;2023-10-09T12:25:43;97016.88;;;8.45;71.05
68141;BME280;54941;52.220;104.306;2023-10-09T12:28:09;97021.31;;;8.17;72.47
68141;BME280;54941;52.220;104.306;2023-10-09T12:30:36;97021.34;;;8.11;73.16
68141;BME280;54941;52.220;104.306;2023-10-09T12:33:02;97028.34;;;8.10;73.27
68141;BME280;54941;52.220;104.306;2023-10-09T12:35:29;97031.00;;;8.00;74.03
68141;BME280;54941;52.220;104.306;2023-10-09T12:37:55;97031.84;;;8.11;73.98
68141;BME280;54941;52.220;104.306;2023-10-09T12:40:22;97023.03;;;8.21;73.30
68141;BME280;54941;52.220;104.306;2023-10-09T12:42:50;97030.97;;;8.13;73.98